Alva, Oklahoma
Current Conditions -  °F | °C
As of 2:35 AM on Thursday 18 Dec 2014 (Local Time) from KAVK Reporting Station
Moderate Fog Moderate Fog  
Wind Chill: 26°   Ceiling: 300
Heat Index: 32°   Visibility: 0.5mi
Dew Point: 32°   Wind: 6mph
Humidity: 100%   Direction: 70°ENE
Pressure: 30.12"   Gusts: NA
Location:  36.8°N, 98.67°W
Report Text: KAVK 180835Z AUTO 07005KT 1/2SM FG OVC003 00/00 A3012 RMK AO2
Loading
Personal Weather Stations






























Interactive Weather Map New forecast layout! Learn more

10-Day Weather Forecast

Advertisements
Track Severe Weather on mobile